Time;durP1;ratioP1;P1;durP2;ratioP2;P2;SDS_P1;SDS_P2;PMS_P1;PMS_P2;Temp;Humidity;BMP_temperature;BMP_pressure;BME280_temperature;BME280_humidity;BME280_pressure;Samples;Min_cycle;Max_cycle;Signal;HPM_P1;HPM_P2
2021/09/25 00:00:10;;;;;;;2.00;1.40;;;;;;;11.17;89.10;98762.89;1750196;81;21619;-76
2021/09/25 00:02:36;;;;;;;1.57;1.00;;;;;;;11.15;89.62;98769.89;1749017;81;21014;-74
2021/09/25 00:05:04;;;;;;;1.40;0.80;;;;;;;11.09;90.57;98764.25;1745528;81;21011;-73
2021/09/25 00:07:30;;;;;;;1.27;1.17;;;;;;;11.04;91.42;98771.00;1724507;82;21013;-73
2021/09/25 00:09:56;;;;;;;1.45;1.15;;;;;;;11.01;92.21;98776.13;1748861;82;21040;-73
2021/09/25 00:12:23;;;;;;;3.47;1.20;;;;;;;10.97;92.68;98792.03;1750931;81;21548;-73
2021/09/25 00:14:49;;;;;;;4.05;1.30;;;;;;;10.96;93.20;98791.75;1713089;83;20993;-72
2021/09/25 00:17:15;;;;;;;2.33;1.12;;;;;;;10.93;93.62;98790.40;1735205;82;21110;-71
2021/09/25 00:19:44;;;;;;;2.72;1.00;;;;;;;10.93;93.82;98777.52;1719619;83;21477;-71
2021/09/25 00:22:10;;;;;;;5.30;1.10;;;;;;;10.91;94.05;98783.70;1738665;82;21503;-72
2021/09/25 00:24:36;;;;;;;4.80;1.90;;;;;;;10.91;94.37;98789.08;1748395;82;21488;-72
2021/09/25 00:27:03;;;;;;;1.60;1.25;;;;;;;10.90;94.33;98781.55;1713075;83;21003;-71
2021/09/25 00:29:29;;;;;;;3.17;1.67;;;;;;;10.87;94.51;98785.33;1719795;83;21057;-78
2021/09/25 00:31:56;;;;;;;1.82;1.20;;;;;;;10.87;94.60;98783.98;1696850;83;21004;-78
2021/09/25 00:34:22;;;;;;;3.05;1.12;;;;;;;10.87;94.72;98786.67;1719740;83;21165;-76
2021/09/25 00:36:49;;;;;;;2.22;1.35;;;;;;;10.86;94.62;98786.40;1721582;82;21031;-75
2021/09/25 00:39:15;;;;;;;2.70;1.17;;;;;;;10.89;94.73;98785.84;1750662;82;20919;-72
2021/09/25 00:41:41;;;;;;;1.70;1.02;;;;;;;10.91;94.63;98790.42;1746608;81;21022;-72
2021/09/25 00:44:08;;;;;;;1.65;1.45;;;;;;;10.92;94.51;98797.42;1745743;82;21030;-72
2021/09/25 00:46:35;;;;;;;2.95;1.40;;;;;;;10.94;94.51;98797.94;1748210;82;20900;-72
2021/09/25 00:49:02;;;;;;;1.98;1.87;;;;;;;10.96;94.44;98792.29;1743711;82;21069;-70
2021/09/25 00:51:28;;;;;;;1.37;1.00;;;;;;;10.97;94.30;98800.63;1745949;82;20934;-69
2021/09/25 00:53:55;;;;;;;3.70;1.25;;;;;;;10.94;94.24;98817.58;1720802;82;21063;-72
2021/09/25 00:56:22;;;;;;;1.92;1.25;;;;;;;10.93;94.37;98809.23;1719454;82;21023;-72
2021/09/25 00:58:48;;;;;;;3.55;1.47;;;;;;;10.92;94.43;98810.88;1696961;83;21050;-73
2021/09/25 01:01:14;;;;;;;2.58;1.10;;;;;;;10.91;94.48;98818.13;1715694;82;21200;-73
2021/09/25 01:03:41;;;;;;;1.30;1.20;;;;;;;10.89;94.53;98818.94;1714789;82;21198;-74
2021/09/25 01:06:07;;;;;;;3.10;1.00;;;;;;;10.89;94.58;98825.66;1696911;83;21082;-76
2021/09/25 01:08:33;;;;;;;1.20;1.00;;;;;;;10.90;94.61;98823.23;1717232;82;21022;-75
2021/09/25 01:11:00;;;;;;;1.27;1.00;;;;;;;10.92;94.60;98818.94;1745309;82;21010;-73
2021/09/25 01:13:26;;;;;;;2.02;1.15;;;;;;;10.93;94.58;98824.03;1747474;82;21116;-74
2021/09/25 01:15:52;;;;;;;1.32;0.80;;;;;;;10.93;94.54;98830.75;1715844;83;20951;-74
2021/09/25 01:18:19;;;;;;;2.83;1.27;;;;;;;10.91;94.32;98836.96;1687243;82;21096;-73
2021/09/25 01:20:45;;;;;;;3.52;1.20;;;;;;;10.90;94.18;98828.63;1684001;84;21931;-75
2021/09/25 01:23:12;;;;;;;4.67;1.25;;;;;;;10.91;94.23;98837.50;1684018;84;21037;-73
2021/09/25 01:25:38;;;;;;;2.47;1.20;;;;;;;10.92;94.22;98829.70;1708481;82;21106;-73
2021/09/25 01:28:05;;;;;;;2.45;1.37;;;;;;;10.93;94.09;98829.41;1721447;83;20939;-73
2021/09/25 01:30:31;;;;;;;1.57;1.07;;;;;;;10.92;93.73;98839.12;1737566;82;21492;-77
2021/09/25 01:32:58;;;;;;;3.22;1.67;;;;;;;10.93;93.64;98835.35;1724450;82;21019;-77
2021/09/25 01:35:24;;;;;;;7.25;1.87;;;;;;;10.95;93.57;98831.83;1696721;83;21622;-77
2021/09/25 01:37:52;;;;;;;1.05;0.88;;;;;;;10.98;93.51;98825.12;1743952;82;21150;-81
2021/09/25 01:40:18;;;;;;;1.77;1.10;;;;;;;10.98;93.33;98839.92;1745912;81;21026;-81
2021/09/25 01:42:45;;;;;;;1.75;1.12;;;;;;;10.96;93.17;98841.52;1746155;81;20999;-79
2021/09/25 01:45:13;;;;;;;3.12;1.25;;;;;;;10.94;92.94;98851.73;1715728;82;21010;-76
2021/09/25 01:47:39;;;;;;;2.55;1.00;;;;;;;10.93;92.97;98849.59;1721316;82;21527;-74
2021/09/25 01:50:10;;;;;;;2.33;1.22;;;;;;;10.94;92.91;98839.09;1747810;82;21288;-74
2021/09/25 01:52:36;;;;;;;3.75;1.35;;;;;;;10.96;92.93;98845.56;1727023;82;20951;-75
2021/09/25 01:55:04;;;;;;;3.15;1.20;;;;;;;10.98;92.82;98848.80;1727556;80;21154;-74
2021/09/25 01:57:30;;;;;;;1.20;0.90;;;;;;;11.00;92.68;98855.23;1725564;82;21005;-74
2021/09/25 01:59:57;;;;;;;1.12;1.02;;;;;;;10.98;92.62;98863.59;1719402;83;21055;-74
2021/09/25 02:02:25;;;;;;;4.47;1.90;;;;;;;10.98;92.53;98860.09;1719378;83;21044;-75
2021/09/25 02:04:51;;;;;;;1.57;0.90;;;;;;;10.99;92.60;98872.44;1698445;83;21041;-74
2021/09/25 02:07:18;;;;;;;1.32;1.12;;;;;;;11.00;92.56;98870.84;1719419;83;21031;-73
2021/09/25 02:09:45;;;;;;;7.67;1.20;;;;;;;11.01;92.51;98879.72;1696783;83;21051;-74
2021/09/25 02:12:12;;;;;;;3.90;1.50;;;;;;;11.01;92.40;98884.56;1726664;82;21023;-74
2021/09/25 02:14:39;;;;;;;2.95;1.15;;;;;;;11.02;92.33;98890.22;1725153;82;21914;-74
2021/09/25 02:17:05;;;;;;;3.80;1.22;;;;;;;11.03;92.18;98891.80;1705882;83;20998;-74
2021/09/25 02:19:31;;;;;;;5.60;1.52;;;;;;;11.03;92.11;98895.06;1719459;83;21532;-73
2021/09/25 02:21:58;;;;;;;3.98;1.45;;;;;;;11.02;92.06;98894.25;1696897;83;21032;-75
2021/09/25 02:24:24;;;;;;;5.40;1.62;;;;;;;11.03;92.00;98908.52;1698095;83;21064;-73
2021/09/25 02:26:51;;;;;;;3.33;1.72;;;;;;;11.04;91.90;98902.03;1715310;82;21923;-74
2021/09/25 02:29:17;;;;;;;3.62;1.65;;;;;;;11.06;91.90;98916.84;1690084;83;21097;-74
2021/09/25 02:31:44;;;;;;;7.12;1.50;;;;;;;11.07;91.75;98920.34;1720618;83;20922;-74
2021/09/25 02:34:10;;;;;;;3.20;1.30;;;;;;;11.08;91.70;98921.40;1683953;85;21524;-74
2021/09/25 02:36:36;;;;;;;5.28;1.55;;;;;;;11.09;91.58;98925.70;1652808;86;21087;-74
2021/09/25 02:39:03;;;;;;;3.95;1.50;;;;;;;11.07;91.58;98933.80;1682485;84;21063;-76
2021/09/25 02:41:29;;;;;;;2.75;1.30;;;;;;;11.07;91.64;98929.77;1682462;85;21566;-75
2021/09/25 02:43:56;;;;;;;1.35;1.10;;;;;;;11.09;91.66;98939.70;1682677;85;21476;-74
2021/09/25 02:46:22;;;;;;;2.75;1.27;;;;;;;11.09;91.35;98942.39;1691665;83;21081;-76
2021/09/25 02:48:48;;;;;;;1.45;1.00;;;;;;;11.09;91.13;98930.28;1684813;84;21089;-74
2021/09/25 02:51:15;;;;;;;1.25;1.02;;;;;;;11.12;91.14;98941.33;1701276;83;21191;-77
2021/09/25 02:53:43;;;;;;;2.08;1.05;;;;;;;11.13;90.88;98942.92;1684608;84;21082;-75
2021/09/25 02:56:10;;;;;;;1.87;0.93;;;;;;;11.14;90.45;98955.84;1688415;83;21633;-77
2021/09/25 02:58:37;;;;;;;1.42;0.93;;;;;;;11.13;90.24;98961.76;1690331;83;21522;-76
2021/09/25 03:01:03;;;;;;;0.82;0.80;;;;;;;11.14;89.94;98966.60;1712905;83;21076;-77
2021/09/25 03:03:29;;;;;;;4.08;1.07;;;;;;;11.15;89.81;98968.22;1706883;83;21061;-77
2021/09/25 03:05:56;;;;;;;5.33;1.55;;;;;;;11.15;89.64;98969.03;1678359;83;20946;-76
2021/09/25 03:08:22;;;;;;;1.45;1.20;;;;;;;11.18;89.58;98977.90;1712001;83;20970;-78
2021/09/25 03:10:48;;;;;;;1.87;1.00;;;;;;;11.20;89.23;98982.48;1701490;83;20977;-78
2021/09/25 03:13:15;;;;;;;2.02;1.15;;;;;;;11.20;89.06;99000.52;1708664;83;20999;-78
2021/09/25 03:15:41;;;;;;;2.62;1.22;;;;;;;11.21;89.02;98994.06;1682720;85;21155;-76
2021/09/25 03:18:07;;;;;;;5.20;1.75;;;;;;;11.20;89.12;99008.05;1710810;83;20967;-76
2021/09/25 03:20:34;;;;;;;1.87;1.05;;;;;;;11.20;89.16;99010.75;1690219;83;21009;-77
2021/09/25 03:23:00;;;;;;;1.85;1.30;;;;;;;11.21;89.23;99004.30;1710117;83;21547;-77
2021/09/25 03:25:26;;;;;;;2.55;1.30;;;;;;;11.20;89.31;99018.82;1656960;85;20954;-77
2021/09/25 03:27:54;;;;;;;2.72;1.75;;;;;;;11.19;89.38;99009.13;1668520;84;21091;-75
2021/09/25 03:30:21;;;;;;;3.20;1.12;;;;;;;11.18;89.62;99032.27;1672305;84;21497;-78
2021/09/25 03:32:48;;;;;;;2.25;1.27;;;;;;;11.16;89.80;99025.02;1663682;84;20932;-77
2021/09/25 03:35:16;;;;;;;2.22;1.20;;;;;;;11.14;89.93;99022.58;1654380;85;21043;-76
2021/09/25 03:37:42;;;;;;;4.22;1.55;;;;;;;11.14;90.14;99036.04;1643859;86;21069;-78
2021/09/25 03:40:10;;;;;;;3.40;1.55;;;;;;;11.15;90.27;99030.12;1667062;85;21159;-77
2021/09/25 03:42:37;;;;;;;3.27;1.52;;;;;;;11.17;90.35;99039.56;1667064;86;21053;-79
2021/09/25 03:45:06;;;;;;;2.50;1.42;;;;;;;11.19;90.32;99045.46;1674307;84;20999;-77
2021/09/25 03:47:32;;;;;;;5.17;1.40;;;;;;;11.18;90.35;99048.41;1683866;85;21016;-78
2021/09/25 03:49:58;;;;;;;4.40;1.35;;;;;;;11.16;90.46;99054.63;1631206;86;21005;-77
2021/09/25 03:52:24;;;;;;;2.25;1.25;;;;;;;11.17;90.52;99049.52;1660968;86;21823;-77
2021/09/25 03:54:51;;;;;;;10.38;1.85;;;;;;;11.19;90.64;99054.07;1674374;84;20995;-78
2021/09/25 03:57:17;;;;;;;5.10;1.30;;;;;;;11.18;90.60;99061.34;1670514;84;21015;-77
2021/09/25 03:59:44;;;;;;;4.40;1.50;;;;;;;11.16;90.64;99060.81;1667035;85;20987;-77
2021/09/25 04:02:10;;;;;;;1.85;1.45;;;;;;;11.15;90.66;99058.38;1684140;84;21529;-77
2021/09/25 04:04:36;;;;;;;3.05;1.70;;;;;;;11.12;90.78;99073.20;1680668;84;21296;-77
2021/09/25 04:07:03;;;;;;;2.72;1.30;;;;;;;11.08;90.92;99075.34;1686638;83;20931;-76
2021/09/25 04:09:30;;;;;;;5.40;1.00;;;;;;;11.07;91.10;99081.80;1652583;86;21105;-77
2021/09/25 04:11:56;;;;;;;1.32;1.07;;;;;;;11.08;91.20;99082.08;1666092;85;20945;-76
2021/09/25 04:14:23;;;;;;;5.08;2.47;;;;;;;11.09;91.24;99085.82;1671892;84;21074;-76
2021/09/25 04:16:49;;;;;;;3.35;1.30;;;;;;;11.12;91.28;99090.69;1658808;85;21100;-77
2021/09/25 04:19:17;;;;;;;3.70;1.20;;;;;;;11.12;91.20;99092.57;1660828;86;21063;-78
2021/09/25 04:21:43;;;;;;;1.20;0.93;;;;;;;11.11;91.11;99085.03;1661231;86;21055;-75
2021/09/25 04:24:10;;;;;;;1.77;1.22;;;;;;;11.09;91.21;99087.17;1663557;84;21118;-76
2021/09/25 04:26:36;;;;;;;1.95;1.40;;;;;;;11.08;91.31;99092.28;1685071;84;21031;-73
2021/09/25 04:29:03;;;;;;;4.47;1.35;;;;;;;11.08;91.33;99100.34;1683550;84;21317;-76
2021/09/25 04:31:29;;;;;;;3.92;1.62;;;;;;;11.09;91.28;99097.12;1665853;85;21043;-78
2021/09/25 04:33:56;;;;;;;4.80;1.70;;;;;;;11.09;91.37;99101.97;1686199;84;21017;-77
2021/09/25 04:36:22;;;;;;;2.08;1.10;;;;;;;11.09;91.32;99104.66;1689429;85;21011;-79
2021/09/25 04:38:48;;;;;;;2.33;1.02;;;;;;;11.09;91.32;99110.05;1690286;84;21062;-77
2021/09/25 04:41:15;;;;;;;4.87;1.52;;;;;;;11.09;91.23;99108.70;1668057;85;21151;-77
2021/09/25 04:43:41;;;;;;;4.25;1.40;;;;;;;11.09;91.33;99124.84;1653881;86;20949;-77
2021/09/25 04:46:08;;;;;;;6.10;1.45;;;;;;;11.11;91.12;99134.00;1668542;84;21011;-75
2021/09/25 04:48:34;;;;;;;1.17;1.05;;;;;;;11.13;91.09;99135.88;1643476;86;21170;-78
2021/09/25 04:51:00;;;;;;;3.20;1.17;;;;;;;11.12;90.96;99128.37;1663100;86;21047;-78
2021/09/25 04:53:30;;;;;;;4.85;1.67;;;;;;;11.11;90.86;99125.40;1657680;83;22115;-78
2021/09/25 04:55:55;;;;;;;4.62;1.57;;;;;;;11.10;90.87;99141.27;1672717;84;20951;-78
2021/09/25 04:58:27;;;;;;;4.12;1.90;;;;;;;11.10;90.84;99138.58;1663022;86;21346;-79
2021/09/25 05:00:49;;;;;;;3.52;1.00;;;;;;;11.12;90.90;99137.79;1639209;86;21576;-76
2021/09/25 05:03:16;;;;;;;21.00;13.70;;;;;;;11.14;90.83;99150.95;1629437;85;21072;-78
2021/09/25 05:05:42;;;;;;;4.72;1.90;;;;;;;11.16;90.71;99167.66;1676627;85;21177;-77
2021/09/25 05:08:08;;;;;;;2.22;1.35;;;;;;;11.15;90.66;99166.03;1712412;83;21001;-77
2021/09/25 05:10:34;;;;;;;4.62;1.62;;;;;;;11.16;90.56;99173.85;1699236;83;21002;-76
2021/09/25 05:13:01;;;;;;;12.50;2.87;;;;;;;11.17;90.37;99176.02;1690570;83;21571;-76
2021/09/25 05:15:27;;;;;;;6.20;1.55;;;;;;;11.18;90.33;99186.49;1682652;85;21013;-76
2021/09/25 05:17:53;;;;;;;2.47;1.55;;;;;;;11.21;90.39;99189.20;1682906;84;21065;-77
2021/09/25 05:20:20;;;;;;;3.95;1.17;;;;;;;11.23;90.31;99197.80;1676496;84;21546;-77
2021/09/25 05:22:46;;;;;;;4.40;1.60;;;;;;;11.24;90.24;99202.94;1664041;84;21043;-76
2021/09/25 05:25:12;;;;;;;7.35;1.70;;;;;;;11.27;90.24;99206.42;1672438;84;21066;-75
2021/09/25 05:27:39;;;;;;;6.50;1.50;;;;;;;11.27;90.07;99203.73;1672585;84;25720;-77
2021/09/25 05:30:08;;;;;;;1.67;1.40;;;;;;;11.27;90.13;99209.13;1656914;84;21040;-76
2021/09/25 05:32:34;;;;;;;4.28;1.95;;;;;;;11.27;90.12;99213.16;1709039;83;21011;-75
2021/09/25 05:35:01;;;;;;;5.22;1.92;;;;;;;11.28;90.11;99216.66;1663627;84;21085;-76
2021/09/25 05:37:27;;;;;;;4.58;2.70;;;;;;;11.27;90.24;99209.69;1682632;84;20990;-77
2021/09/25 05:39:56;;;;;;;5.03;1.50;;;;;;;11.28;90.26;99210.74;1682749;84;21039;-78
2021/09/25 05:42:24;;;;;;;6.62;1.80;;;;;;;11.25;90.35;99216.67;1659607;85;21789;-78
2021/09/25 05:44:50;;;;;;;2.90;1.50;;;;;;;11.21;90.48;99216.13;1689426;84;21546;-78
2021/09/25 05:47:17;;;;;;;5.60;1.90;;;;;;;11.16;91.10;99222.30;1665798;82;21533;-78
2021/09/25 05:49:44;;;;;;;5.35;1.95;;;;;;;11.12;91.46;99230.64;1650834;87;21537;-74
2021/09/25 05:52:11;;;;;;;6.00;2.10;;;;;;;11.10;91.90;99231.95;1650825;85;21036;-76
2021/09/25 05:54:37;;;;;;;10.30;2.27;;;;;;;11.11;92.33;99243.00;1668402;85;21521;-77
2021/09/25 05:57:05;;;;;;;3.80;1.92;;;;;;;11.11;92.47;99237.62;1678362;85;21024;-76
2021/09/25 05:59:31;;;;;;;5.62;2.17;;;;;;;11.12;92.64;99247.32;1680111;85;20978;-77
2021/09/25 06:01:57;;;;;;;9.30;2.35;;;;;;;11.10;92.69;99256.98;1679959;85;21983;-78
2021/09/25 06:04:24;;;;;;;3.98;2.20;;;;;;;11.08;92.68;99256.44;1654269;85;20938;-77
2021/09/25 06:06:50;;;;;;;5.20;2.47;;;;;;;11.10;92.80;99260.22;1651315;85;21136;-75
2021/09/25 06:09:17;;;;;;;4.10;2.30;;;;;;;11.10;92.62;99267.76;1647932;84;21579;-77
2021/09/25 06:11:43;;;;;;;2.58;1.45;;;;;;;11.11;91.94;99288.75;1633869;86;20965;-77
2021/09/25 06:14:09;;;;;;;2.98;1.87;;;;;;;11.09;91.39;99270.17;1664229;85;21042;-76
2021/09/25 06:16:36;;;;;;;2.47;1.50;;;;;;;11.09;91.18;99271.52;1679983;85;21058;-77
2021/09/25 06:19:02;;;;;;;5.10;1.70;;;;;;;11.09;90.34;99276.90;1616328;86;21191;-81
2021/09/25 06:21:28;;;;;;;2.02;1.20;;;;;;;11.12;90.37;99272.36;1627590;85;21059;-77
2021/09/25 06:23:55;;;;;;;1.52;1.30;;;;;;;11.14;90.06;99280.14;1671317;85;21526;-78
2021/09/25 06:26:21;;;;;;;1.52;1.40;;;;;;;11.15;89.56;99285.27;1652298;86;20990;-77
2021/09/25 06:28:47;;;;;;;1.45;1.35;;;;;;;11.18;89.15;99283.39;1652557;86;21014;-76
2021/09/25 06:31:14;;;;;;;6.03;2.17;;;;;;;11.19;88.90;99293.63;1661886;85;21141;-77
2021/09/25 06:33:45;;;;;;;1.55;1.45;;;;;;;11.19;88.49;99299.81;1671339;85;21081;-77
2021/09/25 06:36:16;;;;;;;1.87;1.12;;;;;;;11.20;88.38;99295.25;1650727;85;21001;-76
2021/09/25 06:38:41;;;;;;;5.22;1.32;;;;;;;11.21;87.53;99307.11;1633170;87;21033;-75
2021/09/25 06:41:08;;;;;;;2.12;1.45;;;;;;;11.19;86.76;99305.20;1637921;86;21554;-75
2021/09/25 06:43:35;;;;;;;2.58;1.47;;;;;;;11.21;86.82;99306.30;1633659;85;21177;-77
2021/09/25 06:46:02;;;;;;;3.85;1.80;;;;;;;11.21;86.73;99313.02;1654451;84;21072;-78
2021/09/25 06:48:28;;;;;;;1.00;1.00;;;;;;;11.21;86.58;99311.67;1634076;86;21005;-75
2021/09/25 06:50:55;;;;;;;1.12;1.00;;;;;;;11.21;86.41;99327.30;1681200;85;21045;-76
2021/09/25 06:53:21;;;;;;;2.70;1.40;;;;;;;11.24;86.24;99329.98;1684134;83;21087;-77
2021/09/25 06:55:48;;;;;;;3.33;0.90;;;;;;;11.28;86.08;99333.23;1688839;83;21177;-76
2021/09/25 06:58:16;;;;;;;1.60;1.40;;;;;;;11.33;85.79;99334.60;1708275;83;21479;-80
2021/09/25 07:00:47;;;;;;;2.27;1.40;;;;;;;11.37;85.52;99338.91;1693514;84;21606;-82
2021/09/25 07:03:11;;;;;;;4.10;1.77;;;;;;;11.41;85.29;99340.56;1634113;86;21023;-76
2021/09/25 07:05:37;;;;;;;5.53;1.87;;;;;;;11.46;85.28;99340.59;1679615;83;20987;-77
2021/09/25 07:08:05;;;;;;;2.55;1.20;;;;;;;11.50;85.38;99345.18;1682619;84;23366;-78
2021/09/25 07:10:32;;;;;;;3.12;1.40;;;;;;;11.53;84.25;99351.91;1687508;84;20981;-79
2021/09/25 07:12:58;;;;;;;5.17;1.50;;;;;;;11.53;84.07;99360.80;1694485;84;20968;-74
2021/09/25 07:15:26;;;;;;;3.58;1.80;;;;;;;11.55;84.17;99343.04;1678050;84;21492;-75
2021/09/25 07:17:53;;;;;;;2.65;1.30;;;;;;;11.56;84.03;99354.88;1672145;84;20988;-76
2021/09/25 07:20:19;;;;;;;1.10;0.80;;;;;;;11.58;84.01;99350.05;1663152;85;21226;-79
2021/09/25 07:22:50;;;;;;;6.62;1.85;;;;;;;11.62;83.61;99370.52;1687759;83;21591;-75
2021/09/25 07:25:14;;;;;;;2.77;1.05;;;;;;;11.67;83.62;99342.25;1692477;83;20986;-75
2021/09/25 07:27:40;;;;;;;1.42;1.15;;;;;;;11.70;82.89;99343.88;1691983;83;21084;-75
2021/09/25 07:30:09;;;;;;;2.98;1.20;;;;;;;11.74;82.60;99338.81;1639774;86;21090;-77
2021/09/25 07:32:35;;;;;;;2.90;1.45;;;;;;;11.76;82.44;99349.59;1663231;85;22026;-75
2021/09/25 07:35:02;;;;;;;7.12;1.70;;;;;;;11.77;82.06;99352.55;1640380;85;21061;-75
2021/09/25 07:37:31;;;;;;;4.15;0.93;;;;;;;11.81;82.02;99352.83;1712655;83;21017;-75
2021/09/25 07:39:57;;;;;;;1.50;1.10;;;;;;;11.87;82.37;99352.30;1711830;83;21057;-77
2021/09/25 07:42:25;;;;;;;1.27;1.10;;;;;;;11.91;82.16;99358.24;1706794;83;21002;-75
2021/09/25 07:44:51;;;;;;;1.82;1.20;;;;;;;11.94;81.95;99369.83;1673514;85;21067;-77
2021/09/25 07:47:17;;;;;;;2.52;1.15;;;;;;;11.97;81.43;99377.93;1689630;83;21095;-76
2021/09/25 07:49:44;;;;;;;1.25;1.02;;;;;;;11.97;80.96;99369.31;1690316;84;21492;-79
2021/09/25 07:52:10;;;;;;;2.33;1.45;;;;;;;11.96;80.89;99375.77;1699345;83;21033;-78
2021/09/25 07:54:36;;;;;;;3.52;1.65;;;;;;;11.99;81.18;99358.27;1710495;83;20986;-80
2021/09/25 07:57:04;;;;;;;5.95;1.27;;;;;;;12.03;81.23;99362.86;1670235;84;21224;-79
2021/09/25 07:59:30;;;;;;;2.58;1.70;;;;;;;12.08;81.18;99364.75;1690285;84;21057;-80
2021/09/25 08:01:57;;;;;;;4.97;1.45;;;;;;;12.09;80.81;99372.55;1690247;84;21000;-79
2021/09/25 08:04:23;;;;;;;1.45;1.20;;;;;;;12.11;80.89;99366.37;1691666;83;21539;-80
2021/09/25 08:06:50;;;;;;;1.85;1.20;;;;;;;12.13;80.75;99380.38;1695892;83;21045;-78
2021/09/25 08:09:16;;;;;;;3.52;1.40;;;;;;;12.14;80.49;99387.92;1651654;85;21210;-79
2021/09/25 08:11:42;;;;;;;2.47;1.32;;;;;;;12.15;80.67;99375.53;1644779;86;20983;-81
2021/09/25 08:14:09;;;;;;;2.70;1.65;;;;;;;12.16;80.29;99397.92;1722018;81;21093;-80
2021/09/25 08:16:35;;;;;;;6.33;2.42;;;;;;;12.15;80.30;99407.89;1756330;81;21982;-77
2021/09/25 08:19:01;;;;;;;1.62;1.30;;;;;;;12.14;79.99;99396.02;1756369;81;20999;-80
2021/09/25 08:21:28;;;;;;;2.20;1.60;;;;;;;12.14;80.00;99404.91;1732143;81;21067;-78
2021/09/25 08:23:54;;;;;;;1.98;1.37;;;;;;;12.15;79.78;99405.19;1723357;81;20967;-77
2021/09/25 08:26:20;;;;;;;3.45;1.60;;;;;;;12.16;79.65;99397.92;1731929;82;21046;-79
2021/09/25 08:28:47;;;;;;;3.25;2.25;;;;;;;12.17;79.94;99405.75;1729647;81;21056;-77
2021/09/25 08:31:13;;;;;;;10.98;7.90;;;;;;;12.20;80.11;99399.00;1724720;82;21039;-78
2021/09/25 08:33:40;;;;;;;27.25;17.52;;;;;;;12.21;80.30;99410.88;1736996;81;21024;-78
2021/09/25 08:36:06;;;;;;;12.33;8.10;;;;;;;12.24;80.26;99419.77;1756361;81;20943;-80
2021/09/25 08:38:33;;;;;;;9.05;7.20;;;;;;;12.27;80.09;99412.23;1756352;81;20983;-79
2021/09/25 08:40:59;;;;;;;7.42;6.45;;;;;;;12.31;80.32;99410.61;1725309;82;21050;-80
2021/09/25 08:43:27;;;;;;;7.65;4.22;;;;;;;12.35;80.24;99427.88;1730813;81;21055;-78
2021/09/25 08:46:02;;;;;;;7.87;4.15;;;;;;;12.39;80.35;99419.52;1731922;82;21266;-80
2021/09/25 08:48:29;;;;;;;5.00;3.65;;;;;;;12.42;80.11;99423.83;1749270;81;21022;-80
2021/09/25 08:50:56;;;;;;;4.60;2.52;;;;;;;12.45;79.99;99423.31;1730067;82;20938;-79
2021/09/25 08:53:23;;;;;;;2.65;2.12;;;;;;;12.51;79.64;99430.88;1743191;80;20987;-79
2021/09/25 08:55:50;;;;;;;5.22;2.37;;;;;;;12.55;79.68;99428.72;1704165;83;21081;-80
2021/09/25 08:58:16;;;;;;;4.12;2.05;;;;;;;12.63;79.69;99430.05;1703729;83;21391;-78
2021/09/25 09:00:53;;;;;;;4.62;2.35;;;;;;;12.70;79.49;99427.09;1724014;82;20974;-78
2021/09/25 09:03:37;;;;;;;4.83;1.72;;;;;;;12.72;79.38;99432.48;1727744;81;21074;-81
2021/09/25 09:06:22;;;;;;;3.15;2.00;;;;;;;12.77;79.27;99433.02;1756516;81;21038;-80
2021/09/25 09:08:51;;;;;;;3.95;2.12;;;;;;;12.79;79.11;99436.27;1732079;81;21033;-83
2021/09/25 09:11:20;;;;;;;8.40;1.90;;;;;;;12.80;79.01;99432.50;1720952;83;21140;-80
2021/09/25 09:13:52;;;;;;;4.70;1.75;;;;;;;12.83;78.78;99432.76;1732727;81;20939;-78
2021/09/25 09:16:19;;;;;;;4.03;1.82;;;;;;;12.85;78.38;99427.09;1756555;81;21023;-78
2021/09/25 09:18:48;;;;;;;4.75;2.22;;;;;;;12.85;78.33;99431.96;1756737;81;20896;-79
2021/09/25 09:21:22;;;;;;;6.10;2.12;;;;;;;12.87;78.50;99426.27;1756775;81;20999;-78
2021/09/25 09:24:07;;;;;;;7.55;1.67;;;;;;;12.89;78.59;99418.73;1752280;81;21250;-80
2021/09/25 09:26:36;;;;;;;5.85;1.60;;;;;;;12.95;78.60;99427.09;1756364;81;20951;-80
2021/09/25 09:29:06;;;;;;;4.80;1.70;;;;;;;13.01;78.27;99419.23;1730366;82;20988;-80
2021/09/25 09:31:34;;;;;;;2.20;2.00;;;;;;;13.07;78.00;99420.85;1703777;83;21175;-79
2021/09/25 09:34:03;;;;;;;5.35;2.85;;;;;;;13.12;77.67;99420.06;1733160;81;21031;-80
2021/09/25 09:36:41;;;;;;;5.72;2.75;;;;;;;13.16;77.56;99427.88;1751115;81;21184;-78
2021/09/25 09:39:19;;;;;;;6.28;2.20;;;;;;;13.17;77.54;99433.56;1703993;83;20924;-80
2021/09/25 09:41:51;;;;;;;6.83;2.27;;;;;;;13.18;77.43;99427.89;1730024;81;22251;-73
2021/09/25 09:44:24;;;;;;;4.00;2.33;;;;;;;13.24;77.21;99434.07;1718193;81;21520;-75
2021/09/25 09:46:54;;;;;;;3.62;2.00;;;;;;;13.29;77.03;99424.07;1750975;81;21044;-78
2021/09/25 09:49:26;;;;;;;4.47;1.98;;;;;;;13.37;76.60;99445.68;1710876;82;21229;-78
2021/09/25 09:51:57;;;;;;;5.22;2.72;;;;;;;13.40;76.18;99424.32;1723799;81;21053;-78
2021/09/25 09:54:30;;;;;;;3.17;1.75;;;;;;;13.45;75.61;99422.14;1708310;83;20957;-79
2021/09/25 09:57:00;;;;;;;5.83;2.77;;;;;;;13.51;75.66;99423.75;1709722;84;20949;-79
2021/09/25 09:59:27;;;;;;;6.08;2.27;;;;;;;13.59;75.09;99421.02;1734291;82;21533;-80
2021/09/25 10:01:54;;;;;;;3.80;1.98;;;;;;;13.65;74.67;99414.52;1705479;82;22021;-79
2021/09/25 10:04:20;;;;;;;3.65;1.67;;;;;;;13.71;73.86;99415.58;1708056;82;20952;-76
2021/09/25 10:06:47;;;;;;;2.35;1.55;;;;;;;13.78;73.34;99438.23;1708979;82;20979;-76
2021/09/25 10:09:16;;;;;;;3.70;1.92;;;;;;;13.81;72.67;99439.83;1697051;83;20983;-76
2021/09/25 10:11:45;;;;;;;4.90;1.92;;;;;;;13.79;72.52;99429.86;1703771;83;20998;-77
2021/09/25 10:14:18;;;;;;;6.45;3.15;;;;;;;13.78;72.41;99426.07;1708530;82;21154;-77
2021/09/25 10:16:45;;;;;;;6.92;2.92;;;;;;;13.78;72.49;99426.88;1709361;83;20994;-78
2021/09/25 10:19:12;;;;;;;5.17;3.00;;;;;;;13.79;72.87;99421.75;1709466;83;21002;-79
2021/09/25 10:21:39;;;;;;;7.45;3.70;;;;;;;13.80;72.99;99426.08;1723904;82;21513;-75
2021/09/25 10:24:14;;;;;;;11.50;2.85;;;;;;;13.85;73.20;99431.46;1738970;82;21026;-77
2021/09/25 10:26:45;;;;;;;5.83;2.45;;;;;;;13.92;72.85;99415.73;1733184;82;21129;-79
2021/09/25 10:29:17;;;;;;;7.05;3.42;;;;;;;14.01;73.03;99421.90;1716090;82;20971;-75
2021/09/25 10:31:44;;;;;;;6.83;3.30;;;;;;;14.08;72.65;99426.47;1714171;82;20944;-76
2021/09/25 10:34:15;;;;;;;6.97;3.15;;;;;;;14.10;72.56;99408.08;1708831;83;21024;-78
2021/09/25 10:36:56;;;;;;;5.22;2.12;;;;;;;14.13;71.79;99383.17;1709623;82;21001;-78
2021/09/25 10:39:29;;;;;;;3.55;1.82;;;;;;;14.18;71.74;99400.17;1709314;83;21307;-77
2021/09/25 10:42:00;;;;;;;6.55;2.17;;;;;;;14.21;71.60;99405.02;1695447;82;20905;-74
2021/09/25 10:44:33;;;;;;;4.05;2.62;;;;;;;14.22;71.61;99405.83;1706923;82;21063;-75
2021/09/25 10:47:16;;;;;;;9.25;2.47;;;;;;;14.26;71.31;99403.63;1695658;83;21535;-74
2021/09/25 10:49:47;;;;;;;4.40;2.02;;;;;;;14.31;71.01;99394.13;1717263;82;21559;-74
2021/09/25 10:52:16;;;;;;;2.72;1.67;;;;;;;14.39;69.33;99404.92;1735912;80;21126;-76
2021/09/25 10:54:44;;;;;;;3.95;1.42;;;;;;;14.39;69.14;99391.39;1696864;83;21047;-82
2021/09/25 10:57:18;;;;;;;3.22;2.20;;;;;;;14.39;68.98;99395.45;1729300;82;21051;-74
2021/09/25 11:00:21;;;;;;;6.03;1.98;;;;;;;14.38;69.12;99393.86;1695969;83;21043;-76
2021/09/25 11:02:48;;;;;;;2.05;1.85;;;;;;;14.45;69.46;99391.63;1731776;82;21003;-75
2021/09/25 11:05:22;;;;;;;3.58;1.90;;;;;;;14.55;68.47;99402.91;1743861;82;21497;-75
2021/09/25 11:07:58;;;;;;;3.80;1.27;;;;;;;14.60;67.88;99396.11;1677808;82;21555;-77
2021/09/25 11:11:04;;;;;;;2.02;1.47;;;;;;;14.62;66.72;99410.18;1685039;83;21657;-75
2021/09/25 11:14:04;;;;;;;3.25;1.40;;;;;;;14.59;66.55;99401.25;1682430;84;21074;-79
2021/09/25 11:16:53;;;;;;;2.83;2.00;;;;;;;14.58;67.02;99418.03;1675438;85;21042;-81
2021/09/25 11:19:28;;;;;;;7.25;2.58;;;;;;;14.59;67.59;99407.48;1655681;85;21222;-78
2021/09/25 11:22:22;;;;;;;3.50;1.80;;;;;;;14.62;67.61;99404.22;1655596;84;22618;-83
2021/09/25 11:25:10;;;;;;;5.47;1.77;;;;;;;14.65;67.87;99416.37;1688416;83;21034;-85
2021/09/25 11:27:43;;;;;;;16.82;11.55;;;;;;;14.67;68.33;99413.66;1645301;86;21055;-88
2021/09/25 11:30:20;;;;;;;5.05;2.80;;;;;;;14.73;68.46;99404.92;1689336;83;21395;-86
2021/09/25 11:32:54;;;;;;;5.72;2.30;;;;;;;14.80;68.25;99407.58;1633791;86;21206;-78
2021/09/25 11:35:22;;;;;;;;;;;;;;;14.82;68.28;99394.55;1681057;85;21014;-83
2021/09/25 11:38:07;;;;;;;4.47;1.75;;;;;;;14.88;68.50;99405.34;1649411;86;20233;-90